sensor_id;sensor_type;location;lat;lon;timestamp;pressure;altitude;pressure_sealevel;temperature;humidity
11808;BME280;5961;42.640;23.380;2022-11-30T00:00:17;94140.69;;;4.98;100.00
11808;BME280;5961;42.640;23.380;2022-11-30T00:02:44;94144.41;;;4.97;100.00
11808;BME280;5961;42.640;23.380;2022-11-30T00:05:11;94138.66;;;4.95;100.00
11808;BME280;5961;42.640;23.380;2022-11-30T00:07:38;94141.75;;;4.97;100.00
11808;BME280;5961;42.640;23.380;2022-11-30T00:10:07;94151.31;;;4.93;100.00
11808;BME280;5961;42.640;23.380;2022-11-30T00:12:34;94151.97;;;4.99;100.00
11808;BME280;5961;42.640;23.380;2022-11-30T00:15:01;94147.50;;;4.99;100.00
11808;BME280;5961;42.640;23.380;2022-11-30T00:17:27;94150.53;;;5.07;100.00
11808;BME280;5961;42.640;23.380;2022-11-30T00:19:54;94152.00;;;5.13;100.00
11808;BME280;5961;42.640;23.380;2022-11-30T00:22:21;94148.75;;;5.16;100.00
11808;BME280;5961;42.640;23.380;2022-11-30T00:24:47;94152.84;;;5.22;100.00
11808;BME280;5961;42.640;23.380;2022-11-30T00:27:15;94158.13;;;5.22;100.00
11808;BME280;5961;42.640;23.380;2022-11-30T00:29:42;94163.19;;;5.18;100.00
11808;BME280;5961;42.640;23.380;2022-11-30T00:32:09;94163.75;;;5.29;100.00
11808;BME280;5961;42.640;23.380;2022-11-30T00:34:36;94163.16;;;5.32;100.00
11808;BME280;5961;42.640;23.380;2022-11-30T00:37:02;94161.03;;;5.34;100.00
11808;BME280;5961;42.640;23.380;2022-11-30T00:39:29;94158.09;;;5.35;100.00
11808;BME280;5961;42.640;23.380;2022-11-30T00:41:55;94153.13;;;5.34;100.00
11808;BME280;5961;42.640;23.380;2022-11-30T00:44:23;94155.63;;;5.39;100.00
11808;BME280;5961;42.640;23.380;2022-11-30T00:46:50;94120.25;;;5.18;100.00
11808;BME280;5961;42.640;23.380;2022-11-30T00:49:17;94148.81;;;5.38;100.00
11808;BME280;5961;42.640;23.380;2022-11-30T00:51:43;94148.91;;;5.33;100.00
11808;BME280;5961;42.640;23.380;2022-11-30T00:54:10;94145.22;;;5.34;100.00
11808;BME280;5961;42.640;23.380;2022-11-30T00:56:37;94140.81;;;5.29;100.00
11808;BME280;5961;42.640;23.380;2022-11-30T00:59:04;94152.53;;;5.37;100.00
11808;BME280;5961;42.640;23.380;2022-11-30T01:01:32;94151.28;;;5.34;100.00
11808;BME280;5961;42.640;23.380;2022-11-30T01:04:00;94149.41;;;5.35;100.00
11808;BME280;5961;42.640;23.380;2022-11-30T01:06:27;94148.63;;;5.34;100.00
11808;BME280;5961;42.640;23.380;2022-11-30T01:08:53;94146.94;;;5.38;100.00
11808;BME280;5961;42.640;23.380;2022-11-30T01:11:22;94141.50;;;5.35;100.00
11808;BME280;5961;42.640;23.380;2022-11-30T01:13:49;94135.75;;;5.33;100.00
11808;BME280;5961;42.640;23.380;2022-11-30T01:16:18;94089.28;;;5.01;100.00
11808;BME280;5961;42.640;23.380;2022-11-30T01:18:47;94150.50;;;5.34;100.00
11808;BME280;5961;42.640;23.380;2022-11-30T01:21:15;94141.50;;;5.35;100.00
11808;BME280;5961;42.640;23.380;2022-11-30T01:23:42;94148.91;;;5.33;100.00
11808;BME280;5961;42.640;23.380;2022-11-30T01:26:10;94138.59;;;5.23;100.00
11808;BME280;5961;42.640;23.380;2022-11-30T01:28:37;94145.63;;;5.27;100.00
11808;BME280;5961;42.640;23.380;2022-11-30T01:31:07;94150.28;;;5.30;100.00
11808;BME280;5961;42.640;23.380;2022-11-30T01:33:34;94142.50;;;5.25;100.00
11808;BME280;5961;42.640;23.380;2022-11-30T01:36:04;94148.44;;;5.31;100.00
11808;BME280;5961;42.640;23.380;2022-11-30T01:38:32;94151.09;;;5.31;100.00
11808;BME280;5961;42.640;23.380;2022-11-30T01:40:59;94144.25;;;5.30;100.00
11808;BME280;5961;42.640;23.380;2022-11-30T01:43:36;94133.75;;;5.16;100.00
11808;BME280;5961;42.640;23.380;2022-11-30T01:46:04;94149.03;;;5.28;100.00
11808;BME280;5961;42.640;23.380;2022-11-30T01:48:31;94144.34;;;5.25;100.00
11808;BME280;5961;42.640;23.380;2022-11-30T01:50:57;94141.34;;;5.18;100.00
11808;BME280;5961;42.640;23.380;2022-11-30T01:53:25;94136.66;;;5.15;100.00
11808;BME280;5961;42.640;23.380;2022-11-30T01:55:52;94130.59;;;5.14;100.00
11808;BME280;5961;42.640;23.380;2022-11-30T01:58:24;94144.09;;;5.13;100.00
11808;BME280;5961;42.640;23.380;2022-11-30T02:00:52;94135.88;;;5.14;100.00
11808;BME280;5961;42.640;23.380;2022-11-30T02:03:23;94129.84;;;5.14;100.00
11808;BME280;5961;42.640;23.380;2022-11-30T02:05:52;94142.75;;;5.02;100.00
11808;BME280;5961;42.640;23.380;2022-11-30T02:08:19;94136.97;;;4.99;100.00
11808;BME280;5961;42.640;23.380;2022-11-30T02:10:51;94131.69;;;4.99;100.00
11808;BME280;5961;42.640;23.380;2022-11-30T02:13:32;94131.41;;;5.01;100.00
11808;BME280;5961;42.640;23.380;2022-11-30T02:16:05;94126.75;;;4.98;100.00
11808;BME280;5961;42.640;23.380;2022-11-30T02:18:42;94128.47;;;5.03;100.00
11808;BME280;5961;42.640;23.380;2022-11-30T02:21:13;94140.78;;;4.93;100.00
11808;BME280;5961;42.640;23.380;2022-11-30T02:24:05;94138.34;;;4.97;100.00
11808;BME280;5961;42.640;23.380;2022-11-30T02:26:47;94136.97;;;4.99;100.00
11808;BME280;5961;42.640;23.380;2022-11-30T02:29:19;94130.44;;;4.97;100.00
11808;BME280;5961;42.640;23.380;2022-11-30T02:31:51;94099.34;;;4.72;100.00
11808;BME280;5961;42.640;23.380;2022-11-30T02:34:21;94130.63;;;5.01;100.00
11808;BME280;5961;42.640;23.380;2022-11-30T02:36:51;94111.34;;;4.91;100.00
11808;BME280;5961;42.640;23.380;2022-11-30T02:39:20;94122.25;;;4.98;100.00
11808;BME280;5961;42.640;23.380;2022-11-30T02:41:46;94116.22;;;4.98;100.00
11808;BME280;5961;42.640;23.380;2022-11-30T02:44:14;94130.03;;;5.04;100.00
11808;BME280;5961;42.640;23.380;2022-11-30T02:46:58;94132.22;;;5.02;100.00
11808;BME280;5961;42.640;23.380;2022-11-30T02:49:32;94119.91;;;4.97;100.00
11808;BME280;5961;42.640;23.380;2022-11-30T02:52:02;94131.03;;;4.94;100.00
11808;BME280;5961;42.640;23.380;2022-11-30T02:54:30;94027.16;;;4.37;100.00
11808;BME280;5961;42.640;23.380;2022-11-30T02:56:57;94133.16;;;5.06;100.00
11808;BME280;5961;42.640;23.380;2022-11-30T02:59:24;94138.53;;;5.01;100.00
11808;BME280;5961;42.640;23.380;2022-11-30T03:01:52;94130.63;;;5.01;100.00
11808;BME280;5961;42.640;23.380;2022-11-30T03:04:19;94126.25;;;4.96;100.00
11808;BME280;5961;42.640;23.380;2022-11-30T03:06:46;94143.31;;;4.98;100.00
11808;BME280;5961;42.640;23.380;2022-11-30T03:09:12;94140.09;;;5.02;100.00
11808;BME280;5961;42.640;23.380;2022-11-30T03:11:39;94134.84;;;5.02;100.00
11808;BME280;5961;42.640;23.380;2022-11-30T03:14:06;94128.00;;;5.01;100.00
11808;BME280;5961;42.640;23.380;2022-11-30T03:16:32;94128.19;;;5.04;100.00
11808;BME280;5961;42.640;23.380;2022-11-30T03:19:00;94128.28;;;4.99;100.00
11808;BME280;5961;42.640;23.380;2022-11-30T03:21:27;94140.78;;;5.07;100.00
11808;BME280;5961;42.640;23.380;2022-11-30T03:23:54;94133.06;;;5.11;100.00
11808;BME280;5961;42.640;23.380;2022-11-30T03:26:21;94137.63;;;5.05;100.00
11808;BME280;5961;42.640;23.380;2022-11-30T03:28:48;94133.66;;;5.08;100.00
11808;BME280;5961;42.640;23.380;2022-11-30T03:31:14;94125.75;;;5.08;100.00
11808;BME280;5961;42.640;23.380;2022-11-30T03:33:41;94118.53;;;4.99;100.00
11808;BME280;5961;42.640;23.380;2022-11-30T03:36:10;94137.25;;;5.12;100.00
11808;BME280;5961;42.640;23.380;2022-11-30T03:38:38;94085.00;;;4.78;100.00
11808;BME280;5961;42.640;23.380;2022-11-30T03:41:06;94130.59;;;5.14;100.00
11808;BME280;5961;42.640;23.380;2022-11-30T03:43:33;94128.28;;;5.13;100.00
11808;BME280;5961;42.640;23.380;2022-11-30T03:45:59;94139.88;;;5.12;100.00
11808;BME280;5961;42.640;23.380;2022-11-30T03:48:26;94114.63;;;4.97;100.00
11808;BME280;5961;42.640;23.380;2022-11-30T03:50:53;94140.38;;;5.14;100.00
11808;BME280;5961;42.640;23.380;2022-11-30T03:53:23;94137.25;;;5.12;100.00
11808;BME280;5961;42.640;23.380;2022-11-30T03:55:54;94137.25;;;5.12;100.00
11808;BME280;5961;42.640;23.380;2022-11-30T03:58:22;94124.78;;;5.04;100.00
11808;BME280;5961;42.640;23.380;2022-11-30T04:00:49;94145.75;;;5.09;100.00
11808;BME280;5961;42.640;23.380;2022-11-30T04:03:16;94144.69;;;5.10;100.00
11808;BME280;5961;42.640;23.380;2022-11-30T04:05:43;94142.53;;;4.98;100.00
11808;BME280;5961;42.640;23.380;2022-11-30T04:08:12;94143.81;;;5.01;100.00
11808;BME280;5961;42.640;23.380;2022-11-30T04:10:40;94151.59;;;5.06;100.00
11808;BME280;5961;42.640;23.380;2022-11-30T04:13:06;94142.75;;;5.02;100.00
11808;BME280;5961;42.640;23.380;2022-11-30T04:15:33;94142.16;;;4.91;100.00
11808;BME280;5961;42.640;23.380;2022-11-30T04:17:59;94136.22;;;4.85;100.00
11808;BME280;5961;42.640;23.380;2022-11-30T04:20:26;94146.56;;;4.95;100.00
11808;BME280;5961;42.640;23.380;2022-11-30T04:22:55;94130.47;;;4.83;100.00
11808;BME280;5961;42.640;23.380;2022-11-30T04:25:22;94155.03;;;4.92;100.00
11808;BME280;5961;42.640;23.380;2022-11-30T04:27:50;94155.63;;;4.89;100.00
11808;BME280;5961;42.640;23.380;2022-11-30T04:30:17;94146.16;;;4.88;100.00
11808;BME280;5961;42.640;23.380;2022-11-30T04:32:44;94169.84;;;4.88;100.00
11808;BME280;5961;42.640;23.380;2022-11-30T04:35:10;94156.22;;;4.86;100.00
11808;BME280;5961;42.640;23.380;2022-11-30T04:37:37;94143.53;;;4.88;100.00
11808;BME280;5961;42.640;23.380;2022-11-30T04:40:05;94151.81;;;4.95;100.00
11808;BME280;5961;42.640;23.380;2022-11-30T04:42:32;94152.09;;;4.94;100.00
11808;BME280;5961;42.640;23.380;2022-11-30T04:45:00;94155.22;;;4.96;100.00
11808;BME280;5961;42.640;23.380;2022-11-30T04:47:27;94134.16;;;4.82;100.00
11808;BME280;5961;42.640;23.380;2022-11-30T04:49:54;94150.34;;;5.03;100.00
11808;BME280;5961;42.640;23.380;2022-11-30T04:52:20;94159.28;;;5.02;100.00
11808;BME280;5961;42.640;23.380;2022-11-30T04:54:47;94152.69;;;5.05;100.00
11808;BME280;5961;42.640;23.380;2022-11-30T04:57:14;94153.28;;;5.02;100.00
11808;BME280;5961;42.640;23.380;2022-11-30T04:59:40;94164.50;;;5.07;100.00
11808;BME280;5961;42.640;23.380;2022-11-30T05:02:08;94157.16;;;5.04;100.00
11808;BME280;5961;42.640;23.380;2022-11-30T05:04:35;94161.06;;;5.07;100.00
11808;BME280;5961;42.640;23.380;2022-11-30T05:07:02;94155.31;;;5.05;100.00
11808;BME280;5961;42.640;23.380;2022-11-30T05:09:29;94159.88;;;5.13;100.00
11808;BME280;5961;42.640;23.380;2022-11-30T05:11:56;94157.38;;;5.08;100.00
11808;BME280;5961;42.640;23.380;2022-11-30T05:14:22;94161.34;;;5.05;100.00
11808;BME280;5961;42.640;23.380;2022-11-30T05:16:49;94172.06;;;5.09;100.00
11808;BME280;5961;42.640;23.380;2022-11-30T05:19:17;94167.31;;;5.11;100.00
11808;BME280;5961;42.640;23.380;2022-11-30T05:21:45;94177.25;;;5.14;100.00
11808;BME280;5961;42.640;23.380;2022-11-30T05:24:11;94171.81;;;5.10;100.00
11808;BME280;5961;42.640;23.380;2022-11-30T05:26:38;94162.03;;;5.11;100.00
11808;BME280;5961;42.640;23.380;2022-11-30T05:29:05;94161.34;;;5.19;100.00
11808;BME280;5961;42.640;23.380;2022-11-30T05:31:32;94123.44;;;4.92;100.00
11808;BME280;5961;42.640;23.380;2022-11-30T05:33:59;94157.72;;;5.15;100.00
11808;BME280;5961;42.640;23.380;2022-11-30T05:36:27;94161.81;;;5.21;100.00
11808;BME280;5961;42.640;23.380;2022-11-30T05:38:53;94166.31;;;5.20;100.00
11808;BME280;5961;42.640;23.380;2022-11-30T05:41:20;94171.09;;;5.18;100.00
11808;BME280;5961;42.640;23.380;2022-11-30T05:43:47;94170.78;;;5.20;100.00
11808;BME280;5961;42.640;23.380;2022-11-30T05:46:13;94169.72;;;5.21;100.00
11808;BME280;5961;42.640;23.380;2022-11-30T05:48:40;94169.84;;;5.16;100.00
11808;BME280;5961;42.640;23.380;2022-11-30T05:51:09;94179.19;;;5.08;100.00
11808;BME280;5961;42.640;23.380;2022-11-30T05:53:38;94185.84;;;5.06;100.00
11808;BME280;5961;42.640;23.380;2022-11-30T05:56:07;94184.97;;;5.10;100.00
11808;BME280;5961;42.640;23.380;2022-11-30T05:58:34;94178.59;;;5.11;100.00
11808;BME280;5961;42.640;23.380;2022-11-30T06:01:01;94187.41;;;5.07;100.00
11808;BME280;5961;42.640;23.380;2022-11-30T06:03:28;94190.16;;;5.02;100.00
11808;BME280;5961;42.640;23.380;2022-11-30T06:05:54;94187.69;;;5.05;100.00
11808;BME280;5961;42.640;23.380;2022-11-30T06:08:21;94193.66;;;5.11;100.00
11808;BME280;5961;42.640;23.380;2022-11-30T06:10:50;94202.16;;;5.08;100.00
11808;BME280;5961;42.640;23.380;2022-11-30T06:13:17;94195.78;;;5.09;100.00
11808;BME280;5961;42.640;23.380;2022-11-30T06:15:43;94181.94;;;5.03;100.00
11808;BME280;5961;42.640;23.380;2022-11-30T06:18:11;94204.69;;;5.13;100.00
11808;BME280;5961;42.640;23.380;2022-11-30T06:20:39;94205.34;;;5.18;100.00
11808;BME280;5961;42.640;23.380;2022-11-30T06:23:05;94195.19;;;5.12;100.00
11808;BME280;5961;42.640;23.380;2022-11-30T06:25:32;94200.88;;;5.19;100.00
11808;BME280;5961;42.640;23.380;2022-11-30T06:28:00;94205.75;;;5.25;100.00
11808;BME280;5961;42.640;23.380;2022-11-30T06:30:27;94215.56;;;5.20;100.00
11808;BME280;5961;42.640;23.380;2022-11-30T06:32:53;94208.19;;;5.22;100.00
11808;BME280;5961;42.640;23.380;2022-11-30T06:35:20;94206.50;;;5.26;100.00
11808;BME280;5961;42.640;23.380;2022-11-30T06:37:47;94216.16;;;5.30;100.00
11808;BME280;5961;42.640;23.380;2022-11-30T06:40:14;94212.88;;;5.25;100.00
11808;BME280;5961;42.640;23.380;2022-11-30T06:42:41;94224.88;;;5.31;100.00
11808;BME280;5961;42.640;23.380;2022-11-30T06:45:10;94216.97;;;5.31;100.00
11808;BME280;5961;42.640;23.380;2022-11-30T06:47:37;94218.50;;;5.32;100.00
11808;BME280;5961;42.640;23.380;2022-11-30T06:50:05;94216.84;;;5.36;100.00
11808;BME280;5961;42.640;23.380;2022-11-30T06:52:32;94212.47;;;5.31;100.00
11808;BME280;5961;42.640;23.380;2022-11-30T06:54:59;94210.50;;;5.37;100.00
11808;BME280;5961;42.640;23.380;2022-11-30T06:57:26;94216.72;;;5.41;100.00
11808;BME280;5961;42.640;23.380;2022-11-30T06:59:53;94219.09;;;5.42;100.00
11808;BME280;5961;42.640;23.380;2022-11-30T07:02:22;94218.78;;;5.44;100.00
11808;BME280;5961;42.640;23.380;2022-11-30T07:04:48;94219.19;;;5.37;100.00
11808;BME280;5961;42.640;23.380;2022-11-30T07:07:15;94204.72;;;5.35;100.00
11808;BME280;5961;42.640;23.380;2022-11-30T07:09:42;94207.88;;;5.37;100.00
11808;BME280;5961;42.640;23.380;2022-11-30T07:12:10;94210.13;;;5.43;100.00
11808;BME280;5961;42.640;23.380;2022-11-30T07:14:37;94214.88;;;5.41;100.00
11808;BME280;5961;42.640;23.380;2022-11-30T07:17:03;94217.81;;;5.40;100.00
11808;BME280;5961;42.640;23.380;2022-11-30T07:19:31;94214.69;;;5.38;100.00
11808;BME280;5961;42.640;23.380;2022-11-30T07:21:58;94210.59;;;5.32;100.00
11808;BME280;5961;42.640;23.380;2022-11-30T07:24:25;94220.06;;;5.33;100.00
11808;BME280;5961;42.640;23.380;2022-11-30T07:27:09;94213.13;;;5.23;100.00
11808;BME280;5961;42.640;23.380;2022-11-30T07:29:36;94223.00;;;5.31;100.00
11808;BME280;5961;42.640;23.380;2022-11-30T07:32:02;94224.88;;;5.31;100.00
11808;BME280;5961;42.640;23.380;2022-11-30T07:34:29;94226.59;;;5.35;100.00
11808;BME280;5961;42.640;23.380;2022-11-30T07:36:57;94192.50;;;5.17;100.00
11808;BME280;5961;42.640;23.380;2022-11-30T07:39:24;94216.28;;;5.25;100.00
11808;BME280;5961;42.640;23.380;2022-11-30T07:41:50;94219.78;;;5.34;100.00
11808;BME280;5961;42.640;23.380;2022-11-30T07:44:17;94228.66;;;5.38;100.00
11808;BME280;5961;42.640;23.380;2022-11-30T07:46:44;94209.06;;;5.31;100.00
11808;BME280;5961;42.640;23.380;2022-11-30T07:49:11;94227.38;;;5.36;100.00
11808;BME280;5961;42.640;23.380;2022-11-30T07:51:37;94210.03;;;5.21;100.00
11808;BME280;5961;42.640;23.380;2022-11-30T07:54:05;94224.06;;;5.30;100.00
11808;BME280;5961;42.640;23.380;2022-11-30T07:56:32;94222.13;;;5.36;100.00
11808;BME280;5961;42.640;23.380;2022-11-30T07:59:00;94226.81;;;5.39;100.00
11808;BME280;5961;42.640;23.380;2022-11-30T08:03:58;94204.19;;;5.24;100.00
11808;BME280;5961;42.640;23.380;2022-11-30T08:06:26;94208.06;;;5.40;100.00
11808;BME280;5961;42.640;23.380;2022-11-30T08:08:56;94218.78;;;5.44;100.00
11808;BME280;5961;42.640;23.380;2022-11-30T08:11:25;94224.06;;;5.44;100.00
11808;BME280;5961;42.640;23.380;2022-11-30T08:13:53;94215.88;;;5.45;100.00
11808;BME280;5961;42.640;23.380;2022-11-30T08:16:21;94216.66;;;5.46;100.00
11808;BME280;5961;42.640;23.380;2022-11-30T08:18:48;94218.97;;;5.47;100.00
11808;BME280;5961;42.640;23.380;2022-11-30T08:21:16;94222.19;;;5.44;100.00
11808;BME280;5961;42.640;23.380;2022-11-30T08:23:45;94210.78;;;5.35;100.00
11808;BME280;5961;42.640;23.380;2022-11-30T08:26:13;94212.84;;;5.38;100.00
11808;BME280;5961;42.640;23.380;2022-11-30T08:28:43;94208.81;;;5.41;100.00
11808;BME280;5961;42.640;23.380;2022-11-30T08:31:12;94203.19;;;5.34;100.00
11808;BME280;5961;42.640;23.380;2022-11-30T08:33:39;94221.13;;;5.45;100.00
11808;BME280;5961;42.640;23.380;2022-11-30T08:36:07;94228.72;;;5.47;100.00
11808;BME280;5961;42.640;23.380;2022-11-30T08:38:35;94221.91;;;5.46;100.00
11808;BME280;5961;42.640;23.380;2022-11-30T08:41:02;94218.78;;;5.44;100.00
11808;BME280;5961;42.640;23.380;2022-11-30T08:43:29;94224.25;;;5.47;100.00
11808;BME280;5961;42.640;23.380;2022-11-30T08:45:57;94225.03;;;5.48;100.00
11808;BME280;5961;42.640;23.380;2022-11-30T08:48:24;94222.28;;;5.53;100.00
11808;BME280;5961;42.640;23.380;2022-11-30T08:50:51;94217.72;;;5.59;100.00
11808;BME280;5961;42.640;23.380;2022-11-30T08:53:17;94218.97;;;5.61;100.00
11808;BME280;5961;42.640;23.380;2022-11-30T08:55:54;94222.00;;;5.54;100.00
11808;BME280;5961;42.640;23.380;2022-11-30T08:58:21;94216.41;;;5.56;100.00
11808;BME280;5961;42.640;23.380;2022-11-30T09:00:47;94211.25;;;5.51;100.00
11808;BME280;5961;42.640;23.380;2022-11-30T09:03:15;94217.41;;;5.60;100.00
11808;BME280;5961;42.640;23.380;2022-11-30T09:05:42;94215.22;;;5.62;100.00
11808;BME280;5961;42.640;23.380;2022-11-30T09:08:09;94216.91;;;5.58;100.00
11808;BME280;5961;42.640;23.380;2022-11-30T09:10:35;94226.09;;;5.61;100.00
11808;BME280;5961;42.640;23.380;2022-11-30T09:13:02;94218.38;;;5.64;100.00
11808;BME280;5961;42.640;23.380;2022-11-30T09:15:29;94187.06;;;5.49;100.00
11808;BME280;5961;42.640;23.380;2022-11-30T09:17:56;94149.13;;;5.23;100.00
11808;BME280;5961;42.640;23.380;2022-11-30T09:20:24;94212.50;;;5.67;100.00
11808;BME280;5961;42.640;23.380;2022-11-30T09:22:51;94215.63;;;5.69;100.00
11808;BME280;5961;42.640;23.380;2022-11-30T09:25:17;94220.91;;;5.69;100.00
11808;BME280;5961;42.640;23.380;2022-11-30T09:27:44;94216.22;;;5.66;100.00
11808;BME280;5961;42.640;23.380;2022-11-30T09:30:11;94226.16;;;5.69;100.00
11808;BME280;5961;42.640;23.380;2022-11-30T09:32:38;94223.84;;;5.68;100.00
11808;BME280;5961;42.640;23.380;2022-11-30T09:35:05;94226.16;;;5.69;100.00
11808;BME280;5961;42.640;23.380;2022-11-30T09:37:33;94229.28;;;5.71;100.00
11808;BME280;5961;42.640;23.380;2022-11-30T09:40:00;94228.69;;;5.74;100.00
11808;BME280;5961;42.640;23.380;2022-11-30T09:42:36;94214.03;;;5.68;100.00
11808;BME280;5961;42.640;23.380;2022-11-30T09:45:08;94228.69;;;5.74;100.00
11808;BME280;5961;42.640;23.380;2022-11-30T09:51:07;94234.53;;;5.85;100.00
11808;BME280;5961;42.640;23.380;2022-11-30T09:53:40;94238.00;;;5.85;100.00
11808;BME280;5961;42.640;23.380;2022-11-30T09:56:19;94237.69;;;5.87;100.00
11808;BME280;5961;42.640;23.380;2022-11-30T09:58:52;94224.50;;;5.87;100.00
11808;BME280;5961;42.640;23.380;2022-11-30T10:01:20;94224.56;;;5.95;100.00
11808;BME280;5961;42.640;23.380;2022-11-30T10:03:48;94220.97;;;5.91;100.00
11808;BME280;5961;42.640;23.380;2022-11-30T10:06:19;94224.28;;;5.97;100.00
11808;BME280;5961;42.640;23.380;2022-11-30T10:08:57;94223.97;;;5.98;100.00
11808;BME280;5961;42.640;23.380;2022-11-30T10:11:39;94219.47;;;5.99;100.00
11808;BME280;5961;42.640;23.380;2022-11-30T10:14:36;94219.47;;;5.99;100.00
11808;BME280;5961;42.640;23.380;2022-11-30T10:17:10;94214.00;;;5.95;100.00
11808;BME280;5961;42.640;23.380;2022-11-30T10:19:49;94216.16;;;5.93;100.00
11808;BME280;5961;42.640;23.380;2022-11-30T10:22:25;94216.16;;;5.93;100.00
11808;BME280;5961;42.640;23.380;2022-11-30T10:25:05;94219.00;;;5.97;100.00
11808;BME280;5961;42.640;23.380;2022-11-30T10:27:47;94221.91;;;5.95;100.00
11808;BME280;5961;42.640;23.380;2022-11-30T10:30:16;94201.91;;;5.94;100.00
11808;BME280;5961;42.640;23.380;2022-11-30T10:32:48;94196.63;;;5.94;100.00
11808;BME280;5961;42.640;23.380;2022-11-30T10:35:22;94206.47;;;6.02;100.00
11808;BME280;5961;42.640;23.380;2022-11-30T10:37:53;94215.34;;;6.06;100.00
11808;BME280;5961;42.640;23.380;2022-11-30T10:40:31;94211.09;;;5.97;100.00
11808;BME280;5961;42.640;23.380;2022-11-30T10:43:07;94216.72;;;6.04;100.00
11808;BME280;5961;42.640;23.380;2022-11-30T10:45:43;94204.00;;;6.06;100.00
11808;BME280;5961;42.640;23.380;2022-11-30T10:48:14;94199.53;;;6.06;100.00
11808;BME280;5961;42.640;23.380;2022-11-30T10:50:42;94201.06;;;6.07;100.00
11808;BME280;5961;42.640;23.380;2022-11-30T10:53:10;94203.88;;;6.11;100.00
11808;BME280;5961;42.640;23.380;2022-11-30T10:55:42;94196.47;;;6.13;100.00
11808;BME280;5961;42.640;23.380;2022-11-30T10:58:18;94190.09;;;6.14;100.00
11808;BME280;5961;42.640;23.380;2022-11-30T11:00:52;94184.53;;;6.16;100.00
11808;BME280;5961;42.640;23.380;2022-11-30T11:03:23;94183.44;;;6.17;100.00
11808;BME280;5961;42.640;23.380;2022-11-30T11:06:02;94179.13;;;6.21;100.00
11808;BME280;5961;42.640;23.380;2022-11-30T11:08:31;94168.47;;;6.03;100.00
11808;BME280;5961;42.640;23.380;2022-11-30T11:10:59;94171.34;;;6.16;100.00
11808;BME280;5961;42.640;23.380;2022-11-30T11:13:37;94185.38;;;6.25;100.00
11808;BME280;5961;42.640;23.380;2022-11-30T11:16:06;94179.13;;;6.21;100.00
11808;BME280;5961;42.640;23.380;2022-11-30T11:18:34;94184.41;;;6.21;100.00
11808;BME280;5961;42.640;23.380;2022-11-30T11:21:04;94190.66;;;6.25;100.00
11808;BME280;5961;42.640;23.380;2022-11-30T11:23:33;94167.19;;;6.23;100.00
11808;BME280;5961;42.640;23.380;2022-11-30T11:26:02;94170.41;;;6.20;100.00
11808;BME280;5961;42.640;23.380;2022-11-30T11:28:30;94184.41;;;6.21;100.00
11808;BME280;5961;42.640;23.380;2022-11-30T11:30:57;94164.63;;;6.10;100.00
11808;BME280;5961;42.640;23.380;2022-11-30T11:33:25;94186.56;;;6.19;100.00
11808;BME280;5961;42.640;23.380;2022-11-30T11:35:54;94172.88;;;6.17;100.00
11808;BME280;5961;42.640;23.380;2022-11-30T11:38:26;94178.28;;;6.12;100.00
11808;BME280;5961;42.640;23.380;2022-11-30T11:40:55;94173.19;;;6.15;100.00
11808;BME280;5961;42.640;23.380;2022-11-30T11:43:26;94178.16;;;6.17;100.00
11808;BME280;5961;42.640;23.380;2022-11-30T11:45:55;94050.50;;;5.15;100.00
11808;BME280;5961;42.640;23.380;2022-11-30T11:48:34;94182.06;;;6.19;100.00
11808;BME280;5961;42.640;23.380;2022-11-30T11:51:03;94179.72;;;6.18;100.00
11808;BME280;5961;42.640;23.380;2022-11-30T11:53:39;94161.63;;;6.02;100.00
11808;BME280;5961;42.640;23.380;2022-11-30T11:56:11;94174.88;;;6.11;100.00
11808;BME280;5961;42.640;23.380;2022-11-30T11:58:44;94162.59;;;6.06;100.00
11808;BME280;5961;42.640;23.380;2022-11-30T12:01:26;94173.00;;;6.12;100.00
11808;BME280;5961;42.640;23.380;2022-11-30T12:04:02;94163.78;;;6.00;100.00
11808;BME280;5961;42.640;23.380;2022-11-30T12:06:32;94178.28;;;6.12;100.00
11808;BME280;5961;42.640;23.380;2022-11-30T12:09:04;94183.75;;;6.15;100.00
11808;BME280;5961;42.640;23.380;2022-11-30T12:11:40;94187.94;;;6.16;100.00
11808;BME280;5961;42.640;23.380;2022-11-30T12:14:12;94188.25;;;6.15;100.00
11808;BME280;5961;42.640;23.380;2022-11-30T12:16:50;94185.59;;;6.15;100.00
11808;BME280;5961;42.640;23.380;2022-11-30T12:19:24;94179.97;;;6.07;100.00
11808;BME280;5961;42.640;23.380;2022-11-30T12:21:58;94195.28;;;6.19;100.00
11808;BME280;5961;42.640;23.380;2022-11-30T12:24:50;94191.94;;;6.14;100.00
11808;BME280;5961;42.640;23.380;2022-11-30T12:27:26;94192.44;;;6.16;100.00
11808;BME280;5961;42.640;23.380;2022-11-30T12:30:04;94199.44;;;6.20;100.00
11808;BME280;5961;42.640;23.380;2022-11-30T12:32:53;94142.31;;;5.93;100.00
11808;BME280;5961;42.640;23.380;2022-11-30T12:35:32;94182.19;;;6.14;100.00
11808;BME280;5961;42.640;23.380;2022-11-30T12:38:10;94194.34;;;6.24;100.00
11808;BME280;5961;42.640;23.380;2022-11-30T12:40:46;94193.88;;;6.22;100.00
11808;BME280;5961;42.640;23.380;2022-11-30T12:43:22;94178.47;;;6.15;100.00
11808;BME280;5961;42.640;23.380;2022-11-30T12:45:58;94200.22;;;6.21;100.00
11808;BME280;5961;42.640;23.380;2022-11-30T12:48:35;94152.09;;;5.93;100.00
11808;BME280;5961;42.640;23.380;2022-11-30T12:51:16;94202.00;;;6.25;100.00
11808;BME280;5961;42.640;23.380;2022-11-30T12:53:50;94199.03;;;6.27;100.00
11808;BME280;5961;42.640;23.380;2022-11-30T12:56:26;94207.69;;;6.19;100.00
11808;BME280;5961;42.640;23.380;2022-11-30T12:59:01;94205.88;;;6.28;100.00
11808;BME280;5961;42.640;23.380;2022-11-30T13:01:43;94203.72;;;6.30;100.00
11808;BME280;5961;42.640;23.380;2022-11-30T13:04:18;94198.78;;;6.15;100.00
11808;BME280;5961;42.640;23.380;2022-11-30T13:06:50;94198.06;;;6.23;100.00
11808;BME280;5961;42.640;23.380;2022-11-30T13:09:23;94217.03;;;6.25;100.00
11808;BME280;5961;42.640;23.380;2022-11-30T13:11:55;94202.75;;;6.26;100.00
11808;BME280;5961;42.640;23.380;2022-11-30T13:14:24;94209.13;;;6.25;100.00
11808;BME280;5961;42.640;23.380;2022-11-30T13:16:58;94211.22;;;6.14;100.00